Timeline UpdatesTrip UpdatesNews PostsPvt PostsTravel TipsAdmin PostsConv PostsFollowed PostsChat RequestsBlog PostsPNR Posts

Disclaimer
Search
 
 
Wed Oct 1, 2014 05:28:15 ISTHomeTrainsΣChainsAtlasPNRForumGalleryNewsFAQTripsMembersLoginFeedback
No Recent News for this Train
Other Trains in the News **new
Latest...
..
Mon Dec 30, 2013 (12:02AM)
⇐ Return Journey: Train# 19040

19039/Avadh Express

Time-Table HAS CHANGED.
Sep 03 (6:37PM)
Change Departure Station:
Change Arrival Station:
Post a Train Travel TipPost a Train Travel Tip **new
Post a Comment/Question/Picture/VideoPost a Comment/Question/Picture/Video
Pantry/Catering
✓ Pantry Car Avbl
✓ Catering Avbl
Loco/Rake Reversals
LJN/Lucknow Junction NER (6);
RSA - Rake Sharing
19037/19038 have RSA with 19039/19040.
Rake/Coach Composition
LOCO-SLR-S15-S14-S13-S12-S11-S10-S9-S8-S7-S6-S5-S4-S3-S2-S1-PC-B2-B1-A1-GEN-GEN-SLR; Engine reverses at Lucknow
Loco
BDTS-LJN: BRC WAP-4 LJN-MFP: GD WDM-3A
News    PNR    Forum    Time-Table    Availability    Fare Chart    Map    Arr/Dep History    Trips    Gallery    ΣChains    X/O    Timeline    
Travel Time: 9h 35m    16 halts    Distance: 335 km    Avg Speed: 34 km/hr
Type: Mail/Express
Zone: WR/Western
Departs @ 12:15 (Avg 31m late)
Platform# ???
 M W  S
Maghar/MHH 
Arrives @ 21:50 (Avg 2h 41m late)
Platform# 2
 M W  S
Muzaffarpur Junction/MFP 

16 halts. 56 intermediate Stations between Maghar and Muzaffarpur Junction

Show ALL intermediate Stations  Show Old Time-Table

#CodeStation NameX/OArrivesAvgDepartsAvgHaltPFDay#KmSpeedElevZoneAddress
1BDTSMumbai Bandra Terminus (5)  -22:40+021-1819.1234mWRMumbai 400050, Maharashtra
2ADHMumbai Andheri (9)  22:56+222:58+22m81-1813.04212mWRMumbai, Maharashtra
3BVIMumbai Borivali (8)  23:16+523:18+92m61-1800.46719mWRMumbai - 400092, Maharashtra
4BORBoisar (3)  00:19+1400:21+152m22-1732.26017mWRBoisar Tel.no-02525-266626, Maharashtra
5VAPIVapi (3)X01:33 01:31+901:35 01:33+102m12-1661.96327mWRVapi, Gujarat
6BLValsad (3)X  01:58+902:00+102m22-1635.76515mWRValsad, Gujarat
7STSurat (4)  03:03+303:08+35m12-1567.06519mWRSurat 395001, Gujarat
8AKVAnkleshwar Junction (4)X  03:54+1603:56+162m12-1517.07319mWRAnkleshwar, Gujarat
9BRCVadodara Junction (7)XO  05:02+1805:12+1610m32-1437.27036mWRVadodara 390005, Gujarat
10GDAGodhra Junction (3)  06:15+1406:18+153m--2-1363.380122mWRGodhra, Gujarat
11DHDDahod (3)  07:13+3707:15+372m--2-1290.290313mWRDahod, Gujarat
12MGNMeghnagar (3)X  07:37+4107:39+422m--2-1257.174317mWRJhabua, Madhya Pradesh
13BMIBamnia (2)X  08:08+4508:10+452m--2-1221.534392mWRBamnia, Madhya Pradesh
14RTMRatlam Junction (7)  09:30+1509:50+1420m--2-1176.872495mWRRatlam, Madhya Pradesh
15KUHKhachrod (2)X  10:12 10:13+1810:14 10:15+192m--2-1149.124497mWRUjjain, Madhya Pradesh
16NADNagda Junction (4)X  10:55 10:50-111:00 10:55+35m--2-1135.368468mWRNagda, Madhya Pradesh
17MEPMahidpur Road  11:14 11:10+911:16 11:12+92m--2-1118.390493mWCRGogapur, Madhya Pradesh
18VMAVikramgarh Alot (2)X  11:33 11:28+911:35 11:30+92m22-1094.473443mWCRKota Division, Madhya Pradesh
19CMUChau Mahla (3)  11:53 11:48+1011:55 11:50+112m22-1072.666426mWCRJhalawar, Rajasthan
20SVASuwasra (2)  12:08 12:04+1112:10 12:06+112m--2-1057.267450mWCRSuwasra, Madhya Pradesh
21SGZShamgarh (3)X  12:23 12:18+1212:25 12:20+122m--2-1043.865463mWCRMandsaur, Madhya Pradesh
22GOHGaroth (2)  12:33 12:30+1312:35 12:32+142m22-1032.985441mWCRMadhya Pradesh 458880, Madhya Pradesh
23BWMBhawani Mandi (3)X  12:53 12:48+1512:55 12:50+152m--2-1010.376384mWCRBhawani Mandi, Madhya Pradesh
24JHWJhalawar Road (3)  13:08 13:03+1613:10 13:05+162m--2-993.874361mWCRJhalawar City, Rajasthan
25RMARamganj Mandi Junction (3)  13:20 13:15+1713:22 13:17+162m--2-981.454358mWCRRamganj Mandi, Rajasthan
26MKXMorak (2)  13:32 13:27+1613:34 13:29+182m--2-972.481337mWCRMorak, Rajasthan
27DKNTDakaniya Talav (2)  14:13 14:08+2314:15 14:10+252m12-919.528278mWCRKota, Rajasthan
28KOTAKota Junction (5)  14:40 14:30+1514:50 14:40+1510m12-910.289256mWCRKota, Rajasthan
29LKELakheri (3)  15:23 15:21+3015:25 15:23+302m--2-849.655228mWCRBundi, Rajasthan
30IDGIndargarh Sumerganj Mandi (2)  15:35+3315:37+332m--2-838.678247mWCRIndargarh, Rajasthan
31SWMSawai Madhopur Junction (4)  16:25 16:05+2716:30 16:10+255m--2-802.351266mWCRSawai Madhopur, Rajasthan
32GGCGangapur City (3)X  17:23 17:25+1517:25 17:30+182 5m--2-738.468270mWCRGangapur, Rajasthan
33SMBJShri Mahabirji (3)  17:50 18:00+2217:52 18:02+222m--2-704.361240mWCRKarauli, Rajasthan
34HANHindaun City (2)  18:02 18:12+2318:04 18:14+232m--2-694.227230mWCRKarauli, Rajasthan
35BXNBayana Junction (3)  19:23 19:28+219:25 19:30+52m--2-661.368198mWCRBayana, Rajasthan
36RBSRupbas (2)X  20:09 20:00+520:11 20:01+102 1m--2-627.157178mNCRJAGNER ROAD, Rajasthan
37FTSFatehpur Sikri (2)  20:31 20:16+520:33 20:18+92m--2-612.946176mNCRAgra, Uttar Pradesh
38KLBKiraoli (1)  20:48 20:34+1020:50 20:35+132 1m12-600.628174mNCRKiraoli, Uttar Pradesh
39IDHIdgah Agra Junction (3)  21:26 21:21+1521:28 21:23+272m--2-578.98168mNCRAgra, Uttar Pradesh
40AFAgra Fort (3)  21:45 21:40+2321:55 21:50+3110m12-576.814170mNCRRakabganj, Uttar Pradesh
41TDLTundla Junction (5)XO  23:25+1923:35+3010m32-553.833167mNCRDistt.Firozabad, Uttar Pradesh
42FZDFirozabad (4)X  00:05+2400:07+292m23-537.357164mNCRFirozabad, Uttar Pradesh
43SKBShikohabad Junction (4)X  00:28+2700:30+332m23-517.485166mNCRDistrict Firozabad, Uttar Pradesh
44ETWEtawah (5)X  01:09+3701:11+452m33-462.070154mNCRDistt. Etawah, Uttar Pradesh
45BNTBharthana (3)XO  01:28+4701:30+502m--3-442.248147mNCRBharthana, Uttar Pradesh
46PHDPhaphund (4)X  02:15+3402:17+402m--3-405.836146mNCRdist. Auraiya, Uttar Pradesh
47CNBKanpur Central (10)  04:35+004:45+210m--3-322.747128mNCRKANPUR-208 001, Uttar Pradesh
48ONUnnao Junction (5)X  05:06 05:07+1905:08 05:09+192m--3-305.243129mNRUnnao, Uttar Pradesh
49LJNLucknow Junction NER (6)X↵¶06:25+1006:50+725m43-251.410126mNERLucknow, Uttar Pradesh
50LCLucknow City (3)  07:14 07:18+507:16 07:20+82m--3-246.731127mNERLucknow, Uttar Pradesh
51BNZBadshahnagar (2)  07:33 07:32+807:35 07:37+102 5m13-240.443116mNERLucknow, Uttar Pradesh
52GTNRGomti Nagar (3)  07:41 07:43+1307:43 07:44+132 1m13-236.147117mNERLucknow, Uttar Pradesh
53BBKBarabanki Junction (4)  08:10+1408:12+142m--3-215.877122mNRPin-225001, Uttar Pradesh
54BUWBurhwal Junction (3)X  08:40 08:33+2108:42 08:35+212m--3-188.760119mNERBarabanki, Uttar Pradesh
55JLDJarwal Road (2)X  09:00 08:51+2309:02 08:53+252m--3-172.645112mNERBehraich, Uttar Pradesh
56CLJColonelGanj (2)  09:20 09:16+2709:22 09:18+282m--3-155.447108mNERGonda, Uttar Pradesh
57GDGonda Junction (3)  10:15 09:55+1710:25 10:05+1510m23-126.580110mNERGonda 271001, Uttar Pradesh
58MURMankapur Junction (5)X  10:48 10:26+2010:50 10:28+212m13-98.660104mNERDistrict Gonda, Uttar Pradesh
59MSWMaskanwa (2)  11:03 10:42+2111:05 10:44+222m--3-84.559103mNERChhapaiya Rd, Uttar Pradesh
60BVBabhnan (2)  11:20 11:00+3211:22 11:02+322m--3-68.866101mNERDistrict- Basti, Uttar Pradesh
61BSTBasti (4)X  11:50 11:30+2811:55 11:35+285m--3-38.07190mNERBasti 272001, Uttar Pradesh
62KLDKhalilabad (3)  12:18 12:00+3312:20 12:02+332m--3-8.54686mNERKhalilabad- 272175, Uttar Pradesh
63MHHMaghar (3)»  12:34 12:13+3112:36 12:15+312m--30.03883mNERNH 28. Distt- SantKabirNagar- 272173, Uttar Pradesh
64SWASahjanwa (2)  12:51 12:28+2612:53 12:30+262m--38.31580mNERGorakhpur - 273209, Uttar Pradesh
65GKPGorakhpur Junction (10)  13:40+1213:55+1415m--325.44984mNERGorakhpur 273001, Uttar Pradesh
66PPCPipraichX  14:18+3814:20+412m--344.44785mNERGorakhpur Bypass, Uttar Pradesh
67CPJKaptanganj Junction  14:45+3914:50+435m--364.16189mNERCaptainganj, Uttar Pradesh
68SBZSiswa Bazar  15:16+4215:18+422m--390.63494mNERSiswa Bazar, Uttar Pradesh
69KZAKhada15:43+3215:45+322m--3104.92298mNERKhadda Katai Bharpurva Bandh, Uttar Pradesh
70PNYAPaniahwa (2)  16:03+2416:05+272m--3111.53696mNERPaniyahawa Railway Station, Uttar Pradesh
71BUGBagaha (2)X  16:49 16:42+3616:54 16:47+385m--3133.87393mECRBagaha, Bihar
72HIRHarinagar  17:21 17:08+1:0117:23 17:10+1:062m--3159.44797mECRRamnagar, Bihar
73NKENarkatiaganj Junction (3)  17:45 17:30+1:0617:50 17:35+1:115m--3174.95889mECRNarkatiaganj, Bihar
74BTHBettiah (2)  18:34 18:13+1:2418:36 18:15+1:272m--3211.65979mECRBettiah, Bihar
75SGLSagauli (3)X  18:57 18:38+1:3418:59 18:40+1:362m--3234.43373mECRSugauli, Bihar
76BMKIBapudham Motihari (2)  19:17+1:3619:22+1:365m--3255.07172mECRMotihari, Bihar
77CAAChakia (1)X  19:49+1:5419:51+2:012m13287.04066mECRChakia, Bihar
78MAIMehsi (1)X  20:04+2:0120:06+2:042m13295.74064mECRMehsi, Bihar
79MTRMotipur (1)X  20:26+2:0220:28+2:042m13309.01962mECRRatanpura, Bihar
80MFPMuzaffarpur Junction (6)•  21:50+2:41-23335.1-57mECRMuzaffarpur, Bihar
Scroll to Top
Scroll to Bottom